createdAt,value
2023-04-02T00:02:23.584Z,98230.66
2023-04-02T00:05:18.616Z,98229.58
2023-04-02T00:07:53.145Z,98230.45
2023-04-02T00:10:28.597Z,98237.40
2023-04-02T00:13:12.824Z,98233.75
2023-04-02T00:15:44.003Z,98234.41
2023-04-02T00:18:16.795Z,98233.63
2023-04-02T00:20:50.336Z,98234.63
2023-04-02T00:23:19.074Z,98234.96
2023-04-02T00:25:48.344Z,98241.20
2023-04-02T00:28:21.097Z,98237.14
2023-04-02T00:30:56.699Z,98239.84
2023-04-02T00:33:30.409Z,98240.38
2023-04-02T00:35:58.484Z,98241.67
2023-04-02T00:38:35.105Z,98239.52
2023-04-02T00:41:04.447Z,98240.61
2023-04-02T00:43:36.091Z,98239.31
2023-04-02T00:46:11.176Z,98240.25
2023-04-02T00:49:04.306Z,98237.72
2023-04-02T00:51:42.764Z,98242.10
2023-04-02T00:54:15.833Z,98238.88
2023-04-02T00:56:46.482Z,98241.36
2023-04-02T00:59:35.994Z,98242.40
2023-04-02T01:02:19.220Z,98244.02
2023-04-02T01:04:54.520Z,98244.13
2023-04-02T01:07:30.300Z,98243.27
2023-04-02T01:10:08.348Z,98245.04
2023-04-02T01:12:43.976Z,98244.97
2023-04-02T01:15:30.618Z,98244.13
2023-04-02T01:18:04.831Z,98243.10
2023-04-02T01:20:56.815Z,98244.12
2023-04-02T01:23:34.791Z,98245.70
2023-04-02T01:26:19.649Z,98245.73
2023-04-02T01:29:26.202Z,98246.14
2023-04-02T01:31:55.997Z,98244.38
2023-04-02T01:34:27.362Z,98245.31
2023-04-02T01:37:25.536Z,98245.32
2023-04-02T01:39:56.842Z,98245.80
2023-04-02T01:42:33.419Z,98246.76
2023-04-02T01:45:21.940Z,98246.23
2023-04-02T01:47:51.301Z,98246.94
2023-04-02T01:50:19.276Z,98250.05
2023-04-02T01:52:49.778Z,98251.98
2023-04-02T01:55:21.231Z,98251.14
2023-04-02T01:57:53.416Z,98254.58
2023-04-02T02:00:23.821Z,98253.92
2023-04-02T02:02:52.480Z,98244.65
2023-04-02T02:05:23.007Z,98246.77
2023-04-02T02:07:53.811Z,98245.81
2023-04-02T02:10:28.063Z,98246.83
2023-04-02T02:12:56.612Z,98244.52
2023-04-02T02:15:24.743Z,98245.09
2023-04-02T02:18:01.019Z,98245.04
2023-04-02T02:20:29.730Z,98244.89
2023-04-02T02:23:02.694Z,98249.63
2023-04-02T02:25:33.360Z,98247.42
2023-04-02T02:28:14.224Z,98250.23
2023-04-02T02:31:08.214Z,98248.52
2023-04-02T02:33:42.381Z,98252.27
2023-04-02T02:36:17.775Z,98249.90
2023-04-02T02:38:50.678Z,98252.16
2023-04-02T02:41:35.750Z,98251.54
2023-04-02T02:44:09.932Z,98254.78
2023-04-02T02:47:00.361Z,98256.80
2023-04-02T02:49:31.757Z,98256.69
2023-04-02T02:52:09.170Z,98258.66
2023-04-02T02:54:45.727Z,98258.91
2023-04-02T02:57:18.004Z,98260.09
2023-04-02T02:59:47.734Z,98259.96
2023-04-02T03:02:17.664Z,98259.95
2023-04-02T03:04:49.919Z,98260.82
2023-04-02T03:07:19.338Z,98264.61
2023-04-02T03:10:12.741Z,98264.30
2023-04-02T03:12:49.954Z,98266.55
2023-04-02T03:15:56.065Z,98269.48
2023-04-02T03:18:42.127Z,98271.38
2023-04-02T03:21:14.104Z,98271.27
2023-04-02T03:23:46.176Z,98274.38
2023-04-02T03:26:18.782Z,98272.66
2023-04-02T03:28:51.214Z,98277.77
2023-04-02T03:31:24.891Z,98279.14
2023-04-02T03:34:01.543Z,98277.36
2023-04-02T03:36:34.394Z,98281.15
2023-04-02T03:39:13.665Z,98282.30
2023-04-02T03:41:49.567Z,98280.09
2023-04-02T03:44:24.297Z,98280.09
2023-04-02T03:46:58.102Z,98284.08
2023-04-02T03:49:35.478Z,98287.43
2023-04-02T03:52:26.814Z,98293.43
2023-04-02T03:54:56.386Z,98292.41
2023-04-02T03:57:49.714Z,98291.45
2023-04-02T04:00:27.290Z,98293.23
2023-04-02T04:03:16.970Z,98296.60
2023-04-02T04:06:03.038Z,98296.67
2023-04-02T04:08:38.223Z,98299.79
2023-04-02T04:11:09.809Z,98301.75
2023-04-02T04:13:48.841Z,98305.30
2023-04-02T04:16:20.746Z,98299.50
2023-04-02T04:19:05.186Z,98303.19
2023-04-02T04:21:40.087Z,98307.88
2023-04-02T04:24:23.819Z,98313.25
2023-04-02T04:27:05.865Z,98310.68
2023-04-02T04:30:06.249Z,98307.81
2023-04-02T04:32:39.293Z,98314.13
2023-04-02T04:35:27.771Z,98314.48
2023-04-02T04:37:59.057Z,98315.64
2023-04-02T04:40:34.209Z,98322.35
2023-04-02T04:43:05.288Z,98318.64
2023-04-02T04:45:46.140Z,98319.54
2023-04-02T04:48:24.059Z,98326.81
2023-04-02T04:50:54.887Z,98324.70
2023-04-02T04:53:28.346Z,98328.02
2023-04-02T04:56:16.083Z,98321.67
2023-04-02T04:58:53.260Z,98324.37
2023-04-02T05:01:38.477Z,98328.91
2023-04-02T05:04:19.044Z,98331.98
2023-04-02T05:06:53.186Z,98337.05
2023-04-02T05:09:42.293Z,98329.49
2023-04-02T05:12:21.818Z,98332.95
2023-04-02T05:15:12.069Z,98332.08
2023-04-02T05:18:19.243Z,98330.92
2023-04-02T05:21:14.475Z,98334.28
2023-04-02T05:23:56.127Z,98335.85
2023-04-02T05:26:28.502Z,98333.25
2023-04-02T05:29:01.159Z,98336.10
2023-04-02T05:32:07.820Z,98336.21
2023-04-02T05:34:37.582Z,98339.52
2023-04-02T05:37:07.230Z,98341.52
2023-04-02T05:39:37.071Z,98338.87
2023-04-02T05:42:06.620Z,98339.36
2023-04-02T05:45:16.256Z,98344.68
2023-04-02T05:47:47.199Z,98344.02
2023-04-02T05:50:26.278Z,98347.46
2023-04-02T05:53:04.074Z,98348.88
2023-04-02T05:55:43.506Z,98354.77
2023-04-02T05:58:34.596Z,98353.45
2023-04-02T06:01:15.547Z,98356.30
2023-04-02T06:03:59.319Z,98354.60
2023-04-02T06:06:47.441Z,98359.21
2023-04-02T06:09:24.486Z,98363.73
2023-04-02T06:12:17.590Z,98364.94
2023-04-02T06:14:46.479Z,98361.98
2023-04-02T06:17:16.709Z,98364.42
2023-04-02T06:19:46.090Z,98365.27
2023-04-02T06:22:39.779Z,98368.84
2023-04-02T06:25:21.625Z,98373.41
2023-04-02T06:27:50.764Z,98371.79
2023-04-02T06:30:32.871Z,98375.81
2023-04-02T06:33:05.510Z,98376.64
2023-04-02T06:35:36.110Z,98376.42
2023-04-02T06:38:07.956Z,98379.71
2023-04-02T06:40:46.567Z,98378.77
2023-04-02T06:43:38.625Z,98379.13
2023-04-02T06:46:43.040Z,98383.34
2023-04-02T06:49:44.855Z,98382.20
2023-04-02T06:52:21.257Z,98385.72
2023-04-02T06:54:52.014Z,98387.80
2023-04-02T06:57:21.535Z,98393.31
2023-04-02T06:59:51.320Z,98395.69
2023-04-02T07:02:35.064Z,98395.42
2023-04-02T07:05:09.286Z,98393.56
2023-04-02T07:07:39.852Z,98396.06
2023-04-02T07:10:11.741Z,98401.30
2023-04-02T07:12:39.988Z,98403.05
2023-04-02T07:15:21.617Z,98405.97
2023-04-02T07:17:50.005Z,98408.45
2023-04-02T07:20:37.587Z,98408.63
2023-04-02T07:23:09.266Z,98407.84
2023-04-02T07:25:37.419Z,98411.74
2023-04-02T07:28:06.353Z,98414.77
2023-04-02T07:30:34.505Z,98416.33
2023-04-02T07:33:02.964Z,98417.19
2023-04-02T07:35:31.103Z,98413.35
2023-04-02T07:38:02.475Z,98416.05
2023-04-02T07:40:30.855Z,98419.78
2023-04-02T07:42:58.983Z,98418.36
2023-04-02T07:45:27.596Z,98419.09
2023-04-02T07:47:56.712Z,98422.23
2023-04-02T07:50:24.785Z,98422.41
2023-04-02T07:52:52.807Z,98418.62
2023-04-02T07:55:28.383Z,98421.65
2023-04-02T07:57:58.432Z,98423.86
2023-04-02T08:00:27.077Z,98423.31
2023-04-02T08:03:14.953Z,98421.61
2023-04-02T08:05:43.378Z,98421.95
2023-04-02T08:08:11.332Z,98419.84
2023-04-02T08:10:39.327Z,98425.09
2023-04-02T08:13:09.826Z,98425.16
2023-04-02T08:15:38.815Z,98427.19
2023-04-02T08:18:06.845Z,98424.61
2023-04-02T08:20:35.705Z,98429.64
2023-04-02T08:23:04.318Z,98426.92
2023-04-02T08:25:32.398Z,98426.47
2023-04-02T08:28:03.858Z,98430.37
2023-04-02T08:30:37.406Z,98425.77
2023-04-02T08:33:06.695Z,98428.60
2023-04-02T08:35:35.120Z,98432.38
2023-04-02T08:38:03.378Z,98434.05
2023-04-02T08:40:37.706Z,98434.45
2023-04-02T08:43:23.121Z,98438.86
2023-04-02T08:46:00.810Z,98442.13
2023-04-02T08:48:30.154Z,98441.24
2023-04-02T08:50:59.098Z,98440.70
2023-04-02T08:53:33.474Z,98445.19
2023-04-02T08:56:29.353Z,98447.73
2023-04-02T08:58:59.759Z,98450.11
2023-04-02T09:01:47.418Z,98450.89
2023-04-02T09:04:18.963Z,98454.11
2023-04-02T09:06:47.591Z,98450.23
2023-04-02T09:09:16.108Z,98451.86
2023-04-02T09:11:54.658Z,98456.59
2023-04-02T09:14:52.151Z,98455.30
2023-04-02T09:17:22.203Z,98458.45
2023-04-02T09:20:13.097Z,98458.09
2023-04-02T09:22:41.905Z,98457.95
2023-04-02T09:25:14.365Z,98458.92
2023-04-02T09:27:47.100Z,98464.25
2023-04-02T09:30:23.886Z,98461.25
2023-04-02T09:33:03.300Z,98460.67
2023-04-02T09:35:33.234Z,98464.39
2023-04-02T09:38:07.741Z,98464.16
2023-04-02T09:41:04.678Z,98466.60
2023-04-02T09:43:39.218Z,98464.81
2023-04-02T09:46:13.047Z,98466.81
2023-04-02T09:48:44.630Z,98464.43
2023-04-02T09:51:16.560Z,98469.13
2023-04-02T09:53:46.724Z,98472.89
2023-04-02T09:56:25.661Z,98470.80
2023-04-02T09:59:24.640Z,98477.37
2023-04-02T10:01:56.074Z,98477.82
2023-04-02T10:04:36.098Z,98480.23
2023-04-02T10:07:06.530Z,98481.78
2023-04-02T10:09:38.149Z,98482.55
2023-04-02T10:12:07.670Z,98479.05
2023-04-02T10:14:43.456Z,98484.06
2023-04-02T10:17:16.154Z,98485.45
2023-04-02T10:20:20.205Z,98490.07
2023-04-02T10:22:48.300Z,98490.71
2023-04-02T10:25:17.161Z,98487.86
2023-04-02T10:28:02.234Z,98493.60
2023-04-02T10:30:45.183Z,98492.09
2023-04-02T10:33:25.294Z,98493.50
2023-04-02T10:36:36.872Z,98493.87
2023-04-02T10:40:09.028Z,98501.34
2023-04-02T10:42:46.464Z,98506.83
2023-04-02T10:45:17.320Z,98505.16
2023-04-02T10:48:00.981Z,98504.92
2023-04-02T10:50:45.732Z,98511.92
2023-04-02T10:53:19.420Z,98510.42
2023-04-02T10:55:54.123Z,98515.02
2023-04-02T10:58:24.922Z,98516.58
2023-04-02T11:01:03.639Z,98513.80
2023-04-02T11:03:37.597Z,98514.23
2023-04-02T11:06:21.464Z,98513.98
2023-04-02T11:08:52.703Z,98511.97
2023-04-02T11:11:22.777Z,98513.66
2023-04-02T11:14:01.635Z,98513.59
2023-04-02T11:16:29.761Z,98518.23
2023-04-02T11:19:31.324Z,98518.13
2023-04-02T11:22:06.469Z,98520.45
2023-04-02T11:24:42.327Z,98523.45
2023-04-02T11:27:27.902Z,98523.31
2023-04-02T11:30:25.844Z,98528.89
2023-04-02T11:32:57.111Z,98528.49
2023-04-02T11:35:31.844Z,98528.84
2023-04-02T11:38:11.891Z,98529.80
2023-04-02T11:40:45.200Z,98527.23
2023-04-02T11:43:38.404Z,98530.14
2023-04-02T11:46:26.588Z,98533.02
2023-04-02T11:48:55.375Z,98533.02
2023-04-02T11:51:23.744Z,98535.90
2023-04-02T11:53:58.464Z,98536.51
2023-04-02T11:56:36.402Z,98537.42
2023-04-02T11:59:18.325Z,98536.35
2023-04-02T12:02:19.085Z,98535.69
2023-04-02T12:05:16.898Z,98533.14
2023-04-02T12:08:07.670Z,98532.52
2023-04-02T12:11:01.483Z,98531.97
2023-04-02T12:13:41.731Z,98531.27
2023-04-02T12:16:13.183Z,98532.88
2023-04-02T12:18:51.373Z,98535.50
2023-04-02T12:21:22.149Z,98532.73
2023-04-02T12:23:52.145Z,98534.38
2023-04-02T12:26:26.671Z,98539.66
2023-04-02T12:28:56.320Z,98538.98
2023-04-02T12:31:25.383Z,98538.52
2023-04-02T12:33:53.600Z,98539.61
2023-04-02T12:36:23.919Z,98538.81
2023-04-02T12:38:56.578Z,98536.04
2023-04-02T12:41:30.464Z,98536.51
2023-04-02T12:44:21.377Z,98540.54
2023-04-02T12:46:49.612Z,98539.88
2023-04-02T12:49:37.058Z,98540.98
2023-04-02T12:52:10.885Z,98541.00
2023-04-02T12:54:51.919Z,98540.92
2023-04-02T12:57:21.175Z,98538.88
2023-04-02T12:59:49.618Z,98539.89
2023-04-02T13:02:22.688Z,98544.40
2023-04-02T13:04:55.272Z,98544.05
2023-04-02T13:07:27.146Z,98538.88
2023-04-02T13:09:59.733Z,98544.64
2023-04-02T13:12:40.382Z,98540.35
2023-04-02T13:15:23.426Z,98537.51
2023-04-02T13:18:21.512Z,98536.30
2023-04-02T13:20:59.549Z,98539.73
2023-04-02T13:23:27.599Z,98540.54
2023-04-02T13:26:00.268Z,98540.17
2023-04-02T13:28:31.184Z,98542.70
2023-04-02T13:31:00.704Z,98543.42
2023-04-02T13:33:31.124Z,98541.25
2023-04-02T13:35:59.582Z,98543.81
2023-04-02T13:38:28.580Z,98545.83
2023-04-02T13:40:56.830Z,98548.97
2023-04-02T13:43:24.970Z,98549.48
2023-04-02T13:45:53.450Z,98552.41
2023-04-02T13:48:28.760Z,98549.88
2023-04-02T13:50:57.297Z,98551.84
2023-04-02T13:53:29.506Z,98551.35
2023-04-02T13:55:57.650Z,98551.58
2023-04-02T13:58:25.767Z,98550.20
2023-04-02T14:00:58.189Z,98551.10
2023-04-02T14:03:27.310Z,98552.97
2023-04-02T14:06:22.452Z,98551.00
2023-04-02T14:09:18.323Z,98555.81
2023-04-02T14:12:32.155Z,98551.98
2023-04-02T14:15:12.636Z,98552.73
2023-04-02T14:17:59.619Z,98552.38
2023-04-02T14:20:44.830Z,98557.14
2023-04-02T14:23:35.201Z,98558.08
2023-04-02T14:26:31.436Z,98558.88
2023-04-02T14:29:21.476Z,98556.77
2023-04-02T14:31:59.418Z,98557.02
2023-04-02T14:34:39.801Z,98557.55
2023-04-02T14:37:13.589Z,98557.89
2023-04-02T14:39:47.774Z,98556.59
2023-04-02T14:42:50.971Z,98557.70
2023-04-02T14:45:36.971Z,98558.73
2023-04-02T14:48:24.914Z,98560.56
2023-04-02T14:51:02.379Z,98563.40
2023-04-02T14:53:48.210Z,98564.52
2023-04-02T14:56:16.956Z,98566.76
2023-04-02T14:58:49.393Z,98569.46
2023-04-02T15:01:33.768Z,98570.23
2023-04-02T15:04:23.442Z,98569.57
2023-04-02T15:06:53.222Z,98572.52
2023-04-02T15:09:57.457Z,98570.30
2023-04-02T15:12:29.027Z,98573.83
2023-04-02T15:15:45.698Z,98578.42
2023-04-02T15:18:16.377Z,98577.69
2023-04-02T15:20:47.482Z,98578.90
2023-04-02T15:23:36.944Z,98582.33
2023-04-02T15:26:21.721Z,98581.45
2023-04-02T15:29:25.889Z,98581.06
2023-04-02T15:32:35.069Z,98582.16
2023-04-02T15:35:10.978Z,98583.98
2023-04-02T15:37:49.917Z,98586.35
2023-04-02T15:40:38.684Z,98586.88
2023-04-02T15:43:11.282Z,98585.91
2023-04-02T15:46:07.720Z,98587.86
2023-04-02T15:49:01.365Z,98594.75
2023-04-02T15:51:45.444Z,98597.77
2023-04-02T15:54:27.035Z,98595.55
2023-04-02T15:57:02.434Z,98593.14
2023-04-02T15:59:51.962Z,98590.59
2023-04-02T16:02:29.104Z,98594.45
2023-04-02T16:05:05.693Z,98597.30
2023-04-02T16:07:46.961Z,98598.81
2023-04-02T16:10:37.966Z,98600.66
2023-04-02T16:13:28.439Z,98603.52
2023-04-02T16:16:07.014Z,98600.95
2023-04-02T16:19:26.219Z,98600.04
2023-04-02T16:21:58.912Z,98600.62
2023-04-02T16:24:27.206Z,98599.98
2023-04-02T16:26:55.433Z,98598.14
2023-04-02T16:30:11.499Z,98603.02
2023-04-02T16:33:17.049Z,98601.17
2023-04-02T16:36:25.721Z,98602.26
2023-04-02T16:38:58.912Z,98603.80
2023-04-02T16:41:45.772Z,98604.91
2023-04-02T16:44:24.790Z,98605.80
2023-04-02T16:47:02.022Z,98605.65
2023-04-02T16:49:44.472Z,98604.77
2023-04-02T16:52:38.408Z,98608.42
2023-04-02T16:55:13.029Z,98606.58
2023-04-02T16:57:57.560Z,98608.17
2023-04-02T17:00:40.800Z,98609.23
2023-04-02T17:03:37.385Z,98608.57
2023-04-02T17:06:15.519Z,98612.14
2023-04-02T17:08:47.326Z,98616.33
2023-04-02T17:11:23.814Z,98618.72
2023-04-02T17:14:06.050Z,98617.74
2023-04-02T17:16:44.992Z,98617.17
2023-04-02T17:19:15.690Z,98617.30
2023-04-02T17:21:47.222Z,98620.42
2023-04-02T17:24:26.030Z,98623.52
2023-04-02T17:27:00.764Z,98626.14
2023-04-02T17:29:39.570Z,98627.20
2023-04-02T17:32:15.129Z,98627.89
2023-04-02T17:34:43.407Z,98627.73
2023-04-02T17:37:29.858Z,98628.45
2023-04-02T17:40:08.515Z,98628.73
2023-04-02T17:42:54.729Z,98635.04
2023-04-02T17:45:44.756Z,98632.80
2023-04-02T17:48:22.216Z,98633.61
2023-04-02T17:50:55.746Z,98636.10
2023-04-02T17:53:43.067Z,98635.21
2023-04-02T17:56:29.007Z,98637.77
2023-04-02T17:59:14.958Z,98641.60
2023-04-02T18:01:49.654Z,98640.69
2023-04-02T18:04:41.572Z,98642.32
2023-04-02T18:07:34.598Z,98644.19
2023-04-02T18:10:27.915Z,98647.13
2023-04-02T18:13:02.098Z,98645.35
2023-04-02T18:15:36.248Z,98648.42
2023-04-02T18:18:14.415Z,98648.63
2023-04-02T18:20:57.157Z,98652.88
2023-04-02T18:23:45.482Z,98649.26
2023-04-02T18:26:19.701Z,98657.00
2023-04-02T18:29:16.732Z,98653.31
2023-04-02T18:32:22.600Z,98656.94
2023-04-02T18:35:13.204Z,98654.71
2023-04-02T18:38:04.663Z,98661.20
2023-04-02T18:40:54.575Z,98661.38
2023-04-02T18:43:50.168Z,98662.48
2023-04-02T18:46:47.028Z,98660.71
2023-04-02T18:49:39.073Z,98665.66
2023-04-02T18:52:15.326Z,98666.57
2023-04-02T18:54:48.097Z,98665.42
2023-04-02T18:57:20.090Z,98666.17
2023-04-02T18:59:53.084Z,98667.10
2023-04-02T19:02:39.119Z,98666.27
2023-04-02T19:05:35.666Z,98667.91
2023-04-02T19:08:16.533Z,98665.99
2023-04-02T19:10:46.375Z,98664.31
2023-04-02T19:13:22.672Z,98666.45
2023-04-02T19:16:01.696Z,98667.30
2023-04-02T19:18:51.612Z,98667.45
2023-04-02T19:21:40.519Z,98670.01
2023-04-02T19:24:39.262Z,98668.36
2023-04-02T19:27:19.937Z,98671.00
2023-04-02T19:30:09.981Z,98676.74
2023-04-02T19:33:06.615Z,98671.41
2023-04-02T19:35:43.536Z,98671.00
2023-04-02T19:38:31.240Z,98672.19
2023-04-02T19:41:18.891Z,98669.55
2023-04-02T19:43:47.117Z,98672.73
2023-04-02T19:46:15.558Z,98673.63
2023-04-02T19:49:00.357Z,98672.77
2023-04-02T19:51:28.670Z,98674.80
2023-04-02T19:53:56.694Z,98673.88
2023-04-02T19:56:25.083Z,98672.77
2023-04-02T19:58:53.158Z,98671.72
2023-04-02T20:01:21.402Z,98668.95
2023-04-02T20:03:49.604Z,98673.04
2023-04-02T20:06:21.470Z,98671.07
2023-04-02T20:08:50.442Z,98671.58
2023-04-02T20:11:18.443Z,98673.14
2023-04-02T20:13:53.931Z,98674.52
2023-04-02T20:16:22.926Z,98674.36
2023-04-02T20:18:50.975Z,98675.56
2023-04-02T20:21:19.546Z,98678.13
2023-04-02T20:23:47.753Z,98677.74
2023-04-02T20:26:16.201Z,98674.81
2023-04-02T20:28:45.564Z,98673.08
2023-04-02T20:31:15.521Z,98674.69
2023-04-02T20:33:44.739Z,98675.89
2023-04-02T20:36:14.482Z,98672.77
2023-04-02T20:38:42.331Z,98669.38
2023-04-02T20:41:10.385Z,98671.55
2023-04-02T20:43:42.941Z,98672.99
2023-04-02T20:46:12.234Z,98673.17
2023-04-02T20:48:40.819Z,98671.83
2023-04-02T20:51:09.902Z,98675.89
2023-04-02T20:53:38.516Z,98674.70
2023-04-02T20:56:08.824Z,98675.33
2023-04-02T20:58:38.197Z,98678.14
2023-04-02T21:01:22.924Z,98678.00
2023-04-02T21:04:02.371Z,98680.73
2023-04-02T21:06:32.700Z,98679.59
2023-04-02T21:09:03.187Z,98680.08
2023-04-02T21:11:33.060Z,98678.41
2023-04-02T21:14:01.193Z,98683.25
2023-04-02T21:16:31.380Z,98680.89
2023-04-02T21:19:01.440Z,98680.96
2023-04-02T21:21:31.713Z,98681.98
2023-04-02T21:24:02.161Z,98681.34
2023-04-02T21:26:33.466Z,98681.32
2023-04-02T21:29:05.394Z,98683.38
2023-04-02T21:31:36.128Z,98676.52
2023-04-02T21:34:04.990Z,98677.99
2023-04-02T21:36:34.924Z,98679.00
2023-04-02T21:39:07.478Z,98677.97
2023-04-02T21:41:39.043Z,98680.36
2023-04-02T21:44:08.453Z,98678.92
2023-04-02T21:46:38.737Z,98676.77
2023-04-02T21:49:10.458Z,98677.02
2023-04-02T21:51:39.322Z,98673.25
2023-04-02T21:54:09.189Z,98669.54
2023-04-02T21:56:41.602Z,98671.09
2023-04-02T21:59:10.794Z,98669.27
2023-04-02T22:01:43.748Z,98672.68
2023-04-02T22:04:21.607Z,98669.42
2023-04-02T22:06:50.267Z,98670.52
2023-04-02T22:09:20.356Z,98673.23
2023-04-02T22:11:51.012Z,98673.85
2023-04-02T22:14:19.055Z,98672.48
2023-04-02T22:16:47.354Z,98672.88
2023-04-02T22:19:21.444Z,98672.03
2023-04-02T22:21:49.877Z,98666.92
2023-04-02T22:24:22.652Z,98674.70
2023-04-02T22:26:51.077Z,98670.69
2023-04-02T22:29:19.300Z,98673.11
2023-04-02T22:31:47.678Z,98673.80
2023-04-02T22:34:16.029Z,98675.77
2023-04-02T22:36:44.111Z,98673.02
2023-04-02T22:39:13.395Z,98674.92
2023-04-02T22:41:41.516Z,98674.53
2023-04-02T22:44:12.275Z,98676.38
2023-04-02T22:46:40.693Z,98671.81
2023-04-02T22:49:11.157Z,98670.23
2023-04-02T22:51:40.082Z,98672.98
2023-04-02T22:54:08.549Z,98674.45
2023-04-02T22:56:37.730Z,98673.30
2023-04-02T22:59:06.958Z,98672.95
2023-04-02T23:01:35.773Z,98672.30
2023-04-02T23:04:05.333Z,98669.01
2023-04-02T23:06:34.937Z,98668.27
2023-04-02T23:09:04.218Z,98666.00
2023-04-02T23:11:41.398Z,98665.94
2023-04-02T23:14:09.559Z,98663.60
2023-04-02T23:16:37.568Z,98659.77
2023-04-02T23:19:07.647Z,98661.20
2023-04-02T23:21:38.014Z,98660.50
2023-04-02T23:24:12.043Z,98661.87
2023-04-02T23:26:40.474Z,98659.52
2023-04-02T23:29:09.541Z,98654.98
2023-04-02T23:31:38.031Z,98655.77
2023-04-02T23:34:07.697Z,98656.08
2023-04-02T23:36:35.996Z,98655.75
2023-04-02T23:39:09.522Z,98654.92
2023-04-02T23:41:38.414Z,98654.04
2023-04-02T23:44:06.568Z,98649.66
2023-04-02T23:46:35.664Z,98647.98
2023-04-02T23:49:04.057Z,98648.31
2023-04-02T23:51:33.208Z,98650.30
2023-04-02T23:54:01.568Z,98646.60
2023-04-02T23:56:31.826Z,98646.26
2023-04-02T23:58:59.981Z,98645.70
